Kasese Airport


Codes: FZOS/
Name: Kasese Airport
City: Kasese
Country: Congo [DRC]
Elevation: 1863 ft.

Photos at Kasese Airport


   Photos courtesy of SpottingLog. You can add your own sightings and photos by signing up for a free trial today.



No photos found.

Weather at Kasese Airport


Time (UTC)DescriptionTempratureWindCloud coverageVisibilityPressureHumidity
19-Apr-2024 03:00Light Rain20°C2 mph, E62%10000m1011hPa99%
19-Apr-2024 06:00Light Rain21°C0 mph, NE68%10000m1012hPa97%
19-Apr-2024 09:00Overcast Clouds28°C2 mph, NW87%10000m1011hPa69%
19-Apr-2024 12:00Overcast Clouds34°C4 mph, W100%10000m1007hPa44%
19-Apr-2024 15:00Overcast Clouds31°C2 mph, SW100%10000m1006hPa62%
19-Apr-2024 18:00Overcast Clouds25°C2 mph, S98%10000m1008hPa82%
19-Apr-2024 21:00Light Rain23°C2 mph, SE95%10000m1010hPa92%
20-Apr-2024 00:00Moderate Rain22°C2 mph, SE98%10000m1010hPa99%
20-Apr-2024 03:00Light Rain22°C2 mph, NE100%10000m1010hPa99%
20-Apr-2024 06:00Light Rain22°C2 mph, NE100%10000m1012hPa99%
20-Apr-2024 09:00Light Rain23°C2 mph, E100%10000m1013hPa98%
20-Apr-2024 12:00Light Rain25°C2 mph, N100%10000m1010hPa83%
20-Apr-2024 15:00Overcast Clouds24°C0 mph, N100%10000m1009hPa89%
20-Apr-2024 18:00Light Rain22°C2 mph, SE99%10000m1011hPa93%
20-Apr-2024 21:00Overcast Clouds21°C2 mph, SE100%10000m1010hPa97%
21-Apr-2024 00:00Overcast Clouds21°C2 mph, SE100%10000m1009hPa95%
21-Apr-2024 03:00Overcast Clouds21°C0 mph, E100%10000m1010hPa93%
21-Apr-2024 06:00Overcast Clouds23°C2 mph, E100%10000m1012hPa86%
21-Apr-2024 09:00Broken Clouds31°C0 mph, E82%10000m1010hPa51%
21-Apr-2024 12:00Broken Clouds34°C2 mph, W61%10000m1006hPa41%
21-Apr-2024 15:00Broken Clouds29°C2 mph, S61%10000m1006hPa66%
21-Apr-2024 18:00Light Rain23°C2 mph, SE64%10000m1009hPa90%
21-Apr-2024 21:00Light Rain22°C2 mph, E92%10000m1010hPa96%
22-Apr-2024 00:00Light Rain21°C0 mph, NE96%10000m1009hPa97%
22-Apr-2024 03:00Overcast Clouds21°C2 mph, SE99%10000m1009hPa97%
22-Apr-2024 06:00Overcast Clouds23°C2 mph, NE96%10000m1011hPa89%
22-Apr-2024 09:00Overcast Clouds32°C0 mph, NE93%10000m1010hPa48%
22-Apr-2024 12:00Broken Clouds36°C2 mph, W73%10000m1005hPa36%
22-Apr-2024 15:00Few Clouds32°C2 mph, W21%10000m1004hPa55%
22-Apr-2024 18:00Broken Clouds25°C2 mph, SE52%10000m1007hPa74%
22-Apr-2024 21:00Light Rain22°C2 mph, E100%10000m1009hPa91%
23-Apr-2024 00:00Light Rain21°C2 mph, SE100%10000m1008hPa98%
23-Apr-2024 03:00Light Rain21°C0 mph, SW100%10000m1009hPa98%
23-Apr-2024 06:00Light Rain22°C2 mph, E100%10000m1011hPa96%
23-Apr-2024 09:00Overcast Clouds29°C2 mph, SW92%10000m1010hPa64%
23-Apr-2024 12:00Overcast Clouds32°C4 mph, SW96%10000m1007hPa52%
23-Apr-2024 15:00Overcast Clouds29°C2 mph, S100%10000m1005hPa67%
23-Apr-2024 18:00Light Rain22°C4 mph, SE100%7260m1008hPa97%
23-Apr-2024 21:00Light Rain21°C2 mph, SE100%10000m1009hPa99%
24-Apr-2024 00:00Light Rain20°C2 mph, NE100%10000m1009hPa99%